createdAt,value
2022-08-14T00:01:10.352Z,42.63
2022-08-14T00:03:40.593Z,42.69
2022-08-14T00:06:14.069Z,42.68
2022-08-14T00:08:55.504Z,42.55
2022-08-14T00:11:27.049Z,42.51
2022-08-14T00:13:58.952Z,42.43
2022-08-14T00:16:41.090Z,42.37
2022-08-14T00:19:19.197Z,42.49
2022-08-14T00:21:50.364Z,42.45
2022-08-14T00:24:28.402Z,42.41
2022-08-14T00:27:02.275Z,42.50
2022-08-14T00:29:39.930Z,42.34
2022-08-14T00:32:52.981Z,42.27
2022-08-14T00:35:01.200Z,42.45
2022-08-14T00:37:28.913Z,42.42
2022-08-14T00:39:59.570Z,42.51
2022-08-14T00:42:55.370Z,42.43
2022-08-14T00:45:16.253Z,42.48
2022-08-14T00:47:46.521Z,42.41
2022-08-14T00:50:17.658Z,42.38
2022-08-14T00:52:46.306Z,42.42
2022-08-14T00:55:19.814Z,42.36
2022-08-14T00:58:07.646Z,42.45
2022-08-14T01:00:37.531Z,42.44
2022-08-14T01:03:16.552Z,42.60
2022-08-14T01:05:51.947Z,42.60
2022-08-14T01:08:57.950Z,42.51
2022-08-14T01:11:08.013Z,42.48
2022-08-14T01:13:43.213Z,42.39
2022-08-14T01:16:14.899Z,42.65
2022-08-14T01:19:02.435Z,42.53
2022-08-14T01:21:34.772Z,42.53
2022-08-14T01:24:07.407Z,42.61
2022-08-14T01:26:38.991Z,42.63
2022-08-14T01:29:07.143Z,42.57
2022-08-14T01:31:45.033Z,42.73
2022-08-14T01:35:17.701Z,42.58
2022-08-14T01:37:07.373Z,42.64
2022-08-14T01:39:36.209Z,42.53
2022-08-14T01:42:06.336Z,42.57
2022-08-14T01:44:38.801Z,42.77
2022-08-14T01:47:21.676Z,42.83
2022-08-14T01:49:59.653Z,42.72
2022-08-14T01:52:59.054Z,42.87
2022-08-14T01:55:22.097Z,43.16
2022-08-14T01:58:01.435Z,43.16
2022-08-14T02:00:39.278Z,43.31
2022-08-14T02:03:07.650Z,43.46
2022-08-14T02:05:38.188Z,43.28
2022-08-14T02:08:08.883Z,43.21
2022-08-14T02:10:38.508Z,43.35
2022-08-14T02:13:11.246Z,43.39
2022-08-14T02:15:40.754Z,43.44
2022-08-14T02:18:11.853Z,43.51
2022-08-14T02:20:42.791Z,43.55
2022-08-14T02:23:11.762Z,43.57
2022-08-14T02:25:39.664Z,43.58
2022-08-14T02:28:25.367Z,43.50
2022-08-14T02:30:54.966Z,43.48
2022-08-14T02:33:23.235Z,43.45
2022-08-14T02:35:53.434Z,43.57
2022-08-14T02:38:30.172Z,43.51
2022-08-14T02:41:01.961Z,43.48
2022-08-14T02:43:36.510Z,43.61
2022-08-14T02:46:05.380Z,43.41
2022-08-14T02:49:04.770Z,43.55
2022-08-14T02:51:23.968Z,43.83
2022-08-14T02:54:01.683Z,43.89
2022-08-14T02:57:14.336Z,43.92
2022-08-14T02:59:17.554Z,43.82
2022-08-14T03:01:50.554Z,43.75
2022-08-14T03:04:22.413Z,43.80
2022-08-14T03:07:06.506Z,43.62
2022-08-14T03:10:25.105Z,43.57
2022-08-14T03:12:30.782Z,43.64
2022-08-14T03:15:00.577Z,43.71
2022-08-14T03:17:31.794Z,43.79
2022-08-14T03:20:11.208Z,43.71
2022-08-14T03:22:41.909Z,43.80
2022-08-14T03:25:12.077Z,43.84
2022-08-14T03:27:48.423Z,43.87
2022-08-14T03:30:39.084Z,43.86
2022-08-14T03:33:08.064Z,43.75
2022-08-14T03:35:40.385Z,43.92
2022-08-14T03:39:11.618Z,43.54
2022-08-14T03:41:16.396Z,43.58
2022-08-14T03:43:44.446Z,43.50
2022-08-14T03:46:52.738Z,43.55
2022-08-14T03:49:04.191Z,43.50
2022-08-14T03:51:31.958Z,43.56
2022-08-14T03:54:00.540Z,43.45
2022-08-14T03:56:31.868Z,43.55
2022-08-14T03:59:02.998Z,43.38
2022-08-14T04:01:41.577Z,43.56
2022-08-14T04:04:14.446Z,43.65
2022-08-14T04:06:47.852Z,43.78
2022-08-14T04:09:16.899Z,43.79
2022-08-14T04:11:46.237Z,43.77
2022-08-14T04:14:16.490Z,43.84
2022-08-14T04:16:48.056Z,43.66
2022-08-14T04:19:20.490Z,43.82
2022-08-14T04:22:02.503Z,43.80
2022-08-14T04:24:38.596Z,43.89
2022-08-14T04:27:09.924Z,43.89
2022-08-14T04:29:39.230Z,43.98
2022-08-14T04:33:00.208Z,43.97
2022-08-14T04:34:55.942Z,43.97
2022-08-14T04:37:41.417Z,44.01
2022-08-14T04:40:27.813Z,43.84
2022-08-14T04:43:17.075Z,44.07
2022-08-14T04:45:45.174Z,44.08
2022-08-14T04:48:13.024Z,44.06
2022-08-14T04:50:44.626Z,44.04
2022-08-14T04:53:13.788Z,44.14
2022-08-14T04:55:42.872Z,44.06
2022-08-14T04:58:21.676Z,44.15
2022-08-14T05:00:55.037Z,44.16
2022-08-14T05:03:26.781Z,44.43
2022-08-14T05:05:56.673Z,44.39
2022-08-14T05:08:32.087Z,44.32
2022-08-14T05:11:13.520Z,44.52
2022-08-14T05:16:32.306Z,44.58
2022-08-14T05:19:18.059Z,44.63
2022-08-14T05:21:59.971Z,44.66
2022-08-14T05:24:35.233Z,44.64
2022-08-14T05:27:05.360Z,44.77
2022-08-14T05:29:35.182Z,44.85
2022-08-14T05:32:07.251Z,44.97
2022-08-14T05:34:34.862Z,45.16
2022-08-14T05:37:03.525Z,44.91
2022-08-14T05:39:34.467Z,45.24
2022-08-14T05:42:10.059Z,45.10
2022-08-14T05:44:51.244Z,45.17
2022-08-14T05:47:22.997Z,45.36
2022-08-14T05:49:51.637Z,45.30
2022-08-14T05:52:38.535Z,45.36
2022-08-14T05:55:07.182Z,45.50
2022-08-14T05:57:34.816Z,45.55
2022-08-14T06:00:06.433Z,45.62
2022-08-14T06:02:36.678Z,45.86
2022-08-14T06:05:04.708Z,45.66
2022-08-14T06:07:32.284Z,45.75
2022-08-14T06:10:04.163Z,45.92
2022-08-14T06:12:56.392Z,46.00
2022-08-14T06:15:20.932Z,46.28
2022-08-14T06:17:58.636Z,46.48
2022-08-14T06:20:26.689Z,46.46
2022-08-14T06:22:56.270Z,46.45
2022-08-14T06:25:25.045Z,46.87
2022-08-14T06:27:53.736Z,47.05
2022-08-14T06:30:30.497Z,47.12
2022-08-14T06:33:11.982Z,46.68
2022-08-14T06:35:43.288Z,47.16
2022-08-14T06:38:17.859Z,46.82
2022-08-14T06:40:46.083Z,46.09
2022-08-14T06:43:15.239Z,46.30
2022-08-14T06:45:50.396Z,45.95
2022-08-14T06:48:23.667Z,45.86
2022-08-14T06:50:52.003Z,45.88
2022-08-14T06:53:19.834Z,45.85
2022-08-14T06:55:58.332Z,45.69
2022-08-14T06:58:31.616Z,46.15
2022-08-14T07:01:27.031Z,45.83
2022-08-14T07:04:22.845Z,46.11
2022-08-14T07:06:51.044Z,47.01
2022-08-14T07:09:22.443Z,47.29
2022-08-14T07:11:50.828Z,47.24
2022-08-14T07:14:18.795Z,47.61
2022-08-14T07:16:47.740Z,47.87
2022-08-14T07:19:18.060Z,47.95
2022-08-14T07:21:49.144Z,48.38
2022-08-14T07:24:22.173Z,48.57
2022-08-14T07:26:54.237Z,48.16
2022-08-14T07:29:26.020Z,47.75
2022-08-14T07:31:55.409Z,47.88
2022-08-14T07:34:36.503Z,48.08
2022-08-14T07:37:08.664Z,47.76
2022-08-14T07:39:38.577Z,48.30
2022-08-14T07:42:07.983Z,47.92
2022-08-14T07:44:48.974Z,48.14
2022-08-14T07:47:19.679Z,48.10
2022-08-14T07:49:55.314Z,48.07
2022-08-14T07:52:30.812Z,47.87
2022-08-14T07:54:59.522Z,47.90
2022-08-14T07:57:28.352Z,48.03
2022-08-14T07:59:56.074Z,48.05
2022-08-14T08:02:27.527Z,48.29
2022-08-14T08:04:59.310Z,48.09
2022-08-14T08:07:29.857Z,48.33
2022-08-14T08:09:59.533Z,48.50
2022-08-14T08:12:30.921Z,48.25
2022-08-14T08:15:05.860Z,48.12
2022-08-14T08:17:42.711Z,48.30
2022-08-14T08:20:22.755Z,48.23
2022-08-14T08:22:55.774Z,48.21
2022-08-14T08:25:24.285Z,48.15
2022-08-14T08:27:59.270Z,48.09
2022-08-14T08:30:27.105Z,47.92
2022-08-14T08:32:59.190Z,47.87
2022-08-14T08:35:46.567Z,47.98
2022-08-14T08:39:18.740Z,48.05
2022-08-14T08:41:04.944Z,47.89
2022-08-14T08:43:38.195Z,47.62
2022-08-14T08:46:08.993Z,47.56
2022-08-14T08:48:52.321Z,47.89
2022-08-14T08:51:33.383Z,47.87
2022-08-14T08:54:02.902Z,47.72
2022-08-14T08:56:41.279Z,47.75
2022-08-14T08:59:27.377Z,47.74
2022-08-14T09:02:00.556Z,47.50
2022-08-14T09:04:30.424Z,47.92
2022-08-14T09:07:09.200Z,47.48
2022-08-14T09:09:54.164Z,47.56
2022-08-14T09:12:26.798Z,47.47
2022-08-14T09:14:55.647Z,47.40
2022-08-14T09:17:25.893Z,47.19
2022-08-14T09:19:55.773Z,47.30
2022-08-14T09:22:35.824Z,46.80
2022-08-14T09:25:07.267Z,47.06
2022-08-14T09:27:35.695Z,46.70
2022-08-14T09:30:30.761Z,46.63
2022-08-14T09:33:00.104Z,46.98
2022-08-14T09:35:33.744Z,47.02
2022-08-14T09:38:07.082Z,46.81
2022-08-14T09:40:50.825Z,46.49
2022-08-14T09:43:22.848Z,46.53
2022-08-14T09:45:52.838Z,46.19
2022-08-14T09:48:27.554Z,45.96
2022-08-14T09:50:57.682Z,45.83
2022-08-14T09:54:19.430Z,45.26
2022-08-14T09:56:30.303Z,45.52
2022-08-14T09:58:59.705Z,45.33
2022-08-14T10:01:37.412Z,44.91
2022-08-14T10:04:12.358Z,44.57
2022-08-14T10:06:56.445Z,44.26
2022-08-14T10:09:24.093Z,44.23
2022-08-14T10:11:58.961Z,44.03
2022-08-14T10:14:35.757Z,44.17
2022-08-14T10:17:05.194Z,44.07
2022-08-14T10:19:35.759Z,44.14
2022-08-14T10:23:12.951Z,43.81
2022-08-14T10:24:55.068Z,43.08
2022-08-14T10:27:24.326Z,42.33
2022-08-14T10:29:53.280Z,42.62
2022-08-14T10:32:28.406Z,42.82
2022-08-14T10:35:13.631Z,42.98
2022-08-14T10:37:48.066Z,43.34
2022-08-14T10:40:37.406Z,43.20
2022-08-14T10:43:17.875Z,43.05
2022-08-14T10:46:03.599Z,42.88
2022-08-14T10:48:45.820Z,42.68
2022-08-14T10:51:16.690Z,42.52
2022-08-14T10:53:56.945Z,42.84
2022-08-14T10:56:32.227Z,42.66
2022-08-14T10:59:03.639Z,42.99
2022-08-14T11:01:32.562Z,42.78
2022-08-14T11:04:08.585Z,42.66
2022-08-14T11:06:37.275Z,42.73
2022-08-14T11:09:16.917Z,42.51
2022-08-14T11:11:44.823Z,42.65
2022-08-14T11:14:12.571Z,42.46
2022-08-14T11:16:41.677Z,42.40
2022-08-14T11:19:21.196Z,42.20
2022-08-14T11:21:55.517Z,41.97
2022-08-14T11:24:54.384Z,41.93
2022-08-14T11:27:16.935Z,42.23
2022-08-14T11:29:48.097Z,42.34
2022-08-14T11:32:20.685Z,42.20
2022-08-14T11:34:48.485Z,42.13
2022-08-14T11:37:22.886Z,42.16
2022-08-14T11:40:03.065Z,42.10
2022-08-14T11:42:56.702Z,41.61
2022-08-14T11:45:23.195Z,41.69
2022-08-14T11:48:12.705Z,41.68
2022-08-14T11:50:40.105Z,41.35
2022-08-14T11:53:08.784Z,41.65
2022-08-14T11:55:39.552Z,41.57
2022-08-14T11:58:10.628Z,41.45
2022-08-14T12:00:47.470Z,41.43
2022-08-14T12:03:17.798Z,41.53
2022-08-14T12:05:47.745Z,41.54
2022-08-14T12:08:15.781Z,41.53
2022-08-14T12:10:53.364Z,41.37
2022-08-14T12:13:22.365Z,41.35
2022-08-14T12:15:59.217Z,41.58
2022-08-14T12:18:32.341Z,41.37
2022-08-14T12:21:00.509Z,41.47
2022-08-14T12:23:28.170Z,41.57
2022-08-14T12:26:31.686Z,41.45
2022-08-14T12:29:07.941Z,41.20
2022-08-14T12:31:36.288Z,41.45
2022-08-14T12:34:13.502Z,41.36
2022-08-14T12:36:41.317Z,41.31
2022-08-14T12:39:18.822Z,41.40
2022-08-14T12:41:57.273Z,41.41
2022-08-14T12:44:30.440Z,41.08
2022-08-14T12:47:03.708Z,41.12
2022-08-14T12:49:34.737Z,41.36
2022-08-14T12:52:03.274Z,41.14
2022-08-14T12:54:32.083Z,40.95
2022-08-14T12:57:09.153Z,41.17
2022-08-14T12:59:42.660Z,41.02
2022-08-14T13:02:25.392Z,41.16
2022-08-14T13:04:55.494Z,41.03
2022-08-14T13:07:24.083Z,41.07
2022-08-14T13:09:55.580Z,41.07
2022-08-14T13:12:33.268Z,40.93
2022-08-14T13:15:09.081Z,40.49
2022-08-14T13:17:41.235Z,40.48
2022-08-14T13:20:24.079Z,40.40
2022-08-14T13:22:54.885Z,40.21
2022-08-14T13:25:25.578Z,40.52
2022-08-14T13:27:57.643Z,40.42
2022-08-14T13:30:26.231Z,40.63
2022-08-14T13:32:54.446Z,40.92
2022-08-14T13:35:25.929Z,40.81
2022-08-14T13:37:54.057Z,40.80
2022-08-14T13:40:26.468Z,40.94
2022-08-14T13:42:56.799Z,40.74
2022-08-14T13:45:33.679Z,40.88
2022-08-14T13:48:27.397Z,42.15
2022-08-14T13:51:01.688Z,43.09
2022-08-14T13:53:33.313Z,43.03
2022-08-14T13:56:01.296Z,44.82
2022-08-14T13:58:34.495Z,44.95
2022-08-14T14:01:04.444Z,46.53
2022-08-14T14:03:34.934Z,46.15
2022-08-14T14:06:03.225Z,46.48
2022-08-14T14:08:43.106Z,46.14
2022-08-14T14:11:15.791Z,46.20
2022-08-14T14:13:46.437Z,46.20
2022-08-14T14:16:15.339Z,46.61
2022-08-14T14:18:52.204Z,46.76
2022-08-14T14:21:21.742Z,45.38
2022-08-14T14:23:49.990Z,46.11
2022-08-14T14:26:23.185Z,45.00
2022-08-14T14:28:54.755Z,45.91
2022-08-14T14:31:30.109Z,45.79
2022-08-14T14:33:59.717Z,45.06
2022-08-14T14:36:29.383Z,44.90
2022-08-14T14:38:58.177Z,44.40
2022-08-14T14:41:38.187Z,44.44
2022-08-14T14:44:15.793Z,43.93
2022-08-14T14:46:50.526Z,43.70
2022-08-14T14:49:22.040Z,43.32
2022-08-14T14:51:53.677Z,43.15
2022-08-14T14:54:30.937Z,42.89
2022-08-14T14:57:00.337Z,42.62
2022-08-14T14:59:33.586Z,42.42
2022-08-14T15:02:07.740Z,42.62
2022-08-14T15:04:37.904Z,42.38
2022-08-14T15:07:06.162Z,42.23
2022-08-14T15:09:34.387Z,41.99
2022-08-14T15:12:15.987Z,42.23
2022-08-14T15:14:55.246Z,41.91
2022-08-14T15:17:25.192Z,41.88
2022-08-14T15:19:57.301Z,41.67
2022-08-14T15:22:25.445Z,41.89
2022-08-14T15:24:53.246Z,41.68
2022-08-14T15:27:26.199Z,41.70
2022-08-14T15:29:56.014Z,41.66
2022-08-14T15:32:23.676Z,41.72
2022-08-14T15:34:52.951Z,41.58
2022-08-14T15:37:22.110Z,41.53
2022-08-14T15:39:52.760Z,41.30
2022-08-14T15:42:22.489Z,41.44
2022-08-14T15:44:56.914Z,41.28
2022-08-14T15:47:29.618Z,41.43
2022-08-14T15:49:59.449Z,41.43
2022-08-14T15:52:32.608Z,41.46
2022-08-14T15:55:13.169Z,41.45
2022-08-14T15:57:51.728Z,41.49
2022-08-14T16:00:49.455Z,41.37
2022-08-14T16:03:27.794Z,41.79
2022-08-14T16:06:03.376Z,41.85
2022-08-14T16:08:31.208Z,41.87
2022-08-14T16:10:59.791Z,42.03
2022-08-14T16:13:42.099Z,41.91
2022-08-14T16:16:50.547Z,41.71
2022-08-14T16:19:00.990Z,41.83
2022-08-14T16:21:29.571Z,41.31
2022-08-14T16:24:00.485Z,41.09
2022-08-14T16:26:29.819Z,41.09
2022-08-14T16:29:07.365Z,41.17
2022-08-14T16:31:36.592Z,40.79
2022-08-14T16:34:43.716Z,40.29
2022-08-14T16:36:54.207Z,40.51
2022-08-14T16:39:22.575Z,40.08
2022-08-14T16:41:52.159Z,40.24
2022-08-14T16:44:21.878Z,40.00
2022-08-14T16:46:59.830Z,39.97
2022-08-14T16:50:04.041Z,39.70
2022-08-14T16:52:26.277Z,39.46
2022-08-14T16:55:07.024Z,38.98
2022-08-14T16:57:34.998Z,39.18
2022-08-14T17:00:07.167Z,39.25
2022-08-14T17:02:48.406Z,38.83
2022-08-14T17:05:19.804Z,38.74
2022-08-14T17:08:31.878Z,38.73
2022-08-14T17:11:00.858Z,38.40
2022-08-14T17:13:59.215Z,38.68
2022-08-14T17:16:24.658Z,38.53
2022-08-14T17:19:00.816Z,38.56
2022-08-14T17:21:32.239Z,38.66
2022-08-14T17:24:01.032Z,38.74
2022-08-14T17:26:50.783Z,38.68
2022-08-14T17:29:24.225Z,38.53
2022-08-14T17:32:02.148Z,38.26
2022-08-14T17:34:45.242Z,38.10
2022-08-14T17:37:25.995Z,38.18
2022-08-14T17:40:13.824Z,38.00
2022-08-14T17:42:55.663Z,38.12
2022-08-14T17:45:43.201Z,38.26
2022-08-14T17:49:15.673Z,38.17
2022-08-14T17:51:14.226Z,38.18
2022-08-14T17:53:53.310Z,38.25
2022-08-14T17:56:31.779Z,38.43
2022-08-14T17:59:17.798Z,38.32
2022-08-14T18:01:46.489Z,38.51
2022-08-14T18:04:24.971Z,38.43
2022-08-14T18:06:57.874Z,38.74
2022-08-14T18:09:40.353Z,38.47
2022-08-14T18:12:32.902Z,38.65
2022-08-14T18:15:14.575Z,38.45
2022-08-14T18:17:44.912Z,38.56
2022-08-14T18:21:41.927Z,38.61
2022-08-14T18:23:14.576Z,38.75
2022-08-14T18:25:49.271Z,39.07
2022-08-14T18:28:48.269Z,39.11
2022-08-14T18:31:43.763Z,39.13
2022-08-14T18:34:31.563Z,38.93
2022-08-14T18:37:16.753Z,38.99
2022-08-14T18:40:01.548Z,39.07
2022-08-14T18:42:44.230Z,39.25
2022-08-14T18:45:16.128Z,39.23
2022-08-14T18:50:35.236Z,39.47
2022-08-14T18:53:07.231Z,39.53
2022-08-14T18:55:54.037Z,39.41
2022-08-14T18:58:30.932Z,39.52
2022-08-14T19:01:00.759Z,39.57
2022-08-14T19:03:57.352Z,39.21
2022-08-14T19:06:56.555Z,39.50
2022-08-14T19:09:53.742Z,39.44
2022-08-14T19:13:00.696Z,39.66
2022-08-14T19:15:31.375Z,39.71
2022-08-14T19:18:14.343Z,39.87
2022-08-14T19:20:52.833Z,40.31
2022-08-14T19:23:23.565Z,40.58
2022-08-14T19:26:33.681Z,40.46
2022-08-14T19:29:23.442Z,40.18
2022-08-14T19:31:55.200Z,40.98
2022-08-14T19:34:52.116Z,40.78
2022-08-14T19:37:45.900Z,40.78
2022-08-14T19:40:19.427Z,40.85
2022-08-14T19:42:48.929Z,41.04
2022-08-14T19:45:16.786Z,41.54
2022-08-14T19:47:49.776Z,41.16
2022-08-14T19:50:39.081Z,41.43
2022-08-14T19:53:16.591Z,41.62
2022-08-14T19:55:55.722Z,41.39
2022-08-14T19:58:54.942Z,41.80
2022-08-14T20:01:37.490Z,42.16
2022-08-14T20:04:45.193Z,42.39
2022-08-14T20:06:56.958Z,42.04
2022-08-14T20:11:07.841Z,42.45
2022-08-14T20:12:28.878Z,42.06
2022-08-14T20:15:08.822Z,42.29
2022-08-14T20:17:40.339Z,42.05
2022-08-14T20:20:25.312Z,42.50
2022-08-14T20:23:11.325Z,42.54
2022-08-14T20:25:45.189Z,42.05
2022-08-14T20:28:29.549Z,42.25
2022-08-14T20:31:13.237Z,42.43
2022-08-14T20:33:48.671Z,43.10
2022-08-14T20:36:25.858Z,42.42
2022-08-14T20:38:56.285Z,43.14
2022-08-14T20:41:24.013Z,42.57
2022-08-14T20:44:09.441Z,42.70
2022-08-14T20:46:42.173Z,42.88
2022-08-14T20:49:12.014Z,43.20
2022-08-14T20:51:47.492Z,42.72
2022-08-14T20:54:34.361Z,43.50
2022-08-14T20:57:07.341Z,43.15
2022-08-14T20:59:39.881Z,43.35
2022-08-14T21:02:29.743Z,43.56
2022-08-14T21:04:58.711Z,43.50
2022-08-14T21:07:36.097Z,43.20
2022-08-14T21:10:35.427Z,43.43
2022-08-14T21:14:19.073Z,43.07
2022-08-14T21:15:43.547Z,43.17
2022-08-14T21:18:26.189Z,43.75
2022-08-14T21:20:56.662Z,43.35
2022-08-14T21:23:24.322Z,43.75
2022-08-14T21:25:55.081Z,43.51
2022-08-14T21:28:29.857Z,43.85
2022-08-14T21:31:02.467Z,43.67
2022-08-14T21:33:31.546Z,43.85
2022-08-14T21:36:07.577Z,43.72
2022-08-14T21:38:38.463Z,43.79
2022-08-14T21:41:42.877Z,44.06
2022-08-14T21:44:18.260Z,43.52
2022-08-14T21:46:50.205Z,44.10
2022-08-14T21:49:22.094Z,43.98
2022-08-14T21:51:57.139Z,43.81
2022-08-14T21:54:32.583Z,44.06
2022-08-14T21:57:53.644Z,44.00
2022-08-14T22:00:34.630Z,43.93
2022-08-14T22:03:04.258Z,43.60
2022-08-14T22:05:34.884Z,43.99
2022-08-14T22:08:07.410Z,44.31
2022-08-14T22:10:44.709Z,44.33
2022-08-14T22:13:16.952Z,43.96
2022-08-14T22:15:49.625Z,44.13
2022-08-14T22:18:19.874Z,44.18
2022-08-14T22:20:53.914Z,44.03
2022-08-14T22:23:26.376Z,43.80
2022-08-14T22:25:55.071Z,44.05
2022-08-14T22:28:32.995Z,43.94
2022-08-14T22:31:09.915Z,44.02
2022-08-14T22:33:43.532Z,43.98
2022-08-14T22:36:26.574Z,44.04
2022-08-14T22:38:54.429Z,43.82
2022-08-14T22:41:27.610Z,44.06
2022-08-14T22:43:59.471Z,44.08
2022-08-14T22:46:29.470Z,44.47
2022-08-14T22:48:57.489Z,44.25
2022-08-14T22:51:28.496Z,44.29
2022-08-14T22:53:56.745Z,44.23
2022-08-14T22:56:29.453Z,44.20
2022-08-14T22:59:01.632Z,44.13
2022-08-14T23:01:57.086Z,44.39
2022-08-14T23:04:35.016Z,44.26
2022-08-14T23:07:22.618Z,44.26
2022-08-14T23:10:31.257Z,44.30
2022-08-14T23:12:54.254Z,44.41
2022-08-14T23:15:30.221Z,44.34
2022-08-14T23:18:00.280Z,44.47
2022-08-14T23:20:31.818Z,44.53
2022-08-14T23:23:04.181Z,44.49
2022-08-14T23:25:58.715Z,44.49
2022-08-14T23:28:32.975Z,44.60
2022-08-14T23:31:02.940Z,44.57
2022-08-14T23:33:45.799Z,44.53
2022-08-14T23:36:32.290Z,44.58
2022-08-14T23:39:12.310Z,44.60
2022-08-14T23:41:53.181Z,44.65
2022-08-14T23:44:24.686Z,44.50
2022-08-14T23:47:00.559Z,44.65
2022-08-14T23:50:00.655Z,44.68
2022-08-14T23:52:55.632Z,44.70
2022-08-14T23:55:27.006Z,44.71
2022-08-14T23:58:00.826Z,44.63
